createdAt,value
2024-04-14T00:01:43.349Z,99.90
2024-04-14T00:04:13.877Z,99.90
2024-04-14T00:06:42.006Z,99.90
2024-04-14T00:09:12.407Z,99.90
2024-04-14T00:11:43.059Z,99.90
2024-04-14T00:14:13.438Z,99.90
2024-04-14T00:16:41.247Z,99.90
2024-04-14T00:19:11.658Z,99.90
2024-04-14T00:21:40.007Z,99.90
2024-04-14T00:24:10.378Z,99.90
2024-04-14T00:26:38.190Z,99.90
2024-04-14T00:29:11.178Z,99.90
2024-04-14T00:31:39.833Z,99.90
2024-04-14T00:34:11.595Z,99.90
2024-04-14T00:36:39.887Z,99.90
2024-04-14T00:39:10.261Z,99.90
2024-04-14T00:41:38.019Z,99.90
2024-04-14T00:44:11.053Z,99.90
2024-04-14T00:46:38.913Z,99.90
2024-04-14T00:49:10.315Z,99.90
2024-04-14T00:51:38.425Z,99.90
2024-04-14T00:54:09.601Z,99.90
2024-04-14T00:56:37.464Z,99.90
2024-04-14T00:59:10.538Z,99.90
2024-04-14T01:01:38.378Z,99.90
2024-04-14T01:04:09.998Z,99.90
2024-04-14T01:06:38.354Z,99.90
2024-04-14T01:09:10.089Z,99.90
2024-04-14T01:11:37.951Z,99.90
2024-04-14T01:14:11.518Z,99.90
2024-04-14T01:16:39.320Z,99.90
2024-04-14T01:19:10.521Z,99.90
2024-04-14T01:21:38.297Z,99.90
2024-04-14T01:24:08.970Z,99.90
2024-04-14T01:26:39.400Z,99.90
2024-04-14T01:29:10.208Z,99.90
2024-04-14T01:31:37.994Z,99.90
2024-04-14T01:34:08.331Z,99.90
2024-04-14T01:36:36.229Z,99.90
2024-04-14T01:39:06.625Z,99.90
2024-04-14T01:41:34.393Z,99.90
2024-04-14T01:44:07.677Z,99.90
2024-04-14T01:46:35.415Z,99.90
2024-04-14T01:49:05.948Z,99.90
2024-04-14T01:51:36.565Z,99.90
2024-04-14T01:54:04.494Z,99.90
2024-04-14T01:56:34.982Z,99.90
2024-04-14T01:59:07.022Z,99.90
2024-04-14T02:01:38.147Z,99.90
2024-04-14T02:04:06.339Z,99.90
2024-04-14T02:06:36.729Z,99.90
2024-04-14T02:09:04.501Z,99.90
2024-04-14T02:11:35.041Z,99.90
2024-04-14T02:14:03.287Z,99.90
2024-04-14T02:16:36.405Z,99.90
2024-04-14T02:19:04.288Z,99.90
2024-04-14T02:21:34.776Z,99.90
2024-04-14T02:24:02.527Z,99.90
2024-04-14T02:26:32.910Z,99.90
2024-04-14T02:29:00.624Z,99.90
2024-04-14T02:31:31.032Z,99.90
2024-04-14T02:34:01.483Z,99.90
2024-04-14T02:36:31.903Z,99.90
2024-04-14T02:38:59.689Z,99.90
2024-04-14T02:41:30.669Z,99.90
2024-04-14T02:43:58.550Z,99.90
2024-04-14T02:46:29.292Z,99.90
2024-04-14T02:48:57.578Z,99.90
2024-04-14T02:51:30.875Z,99.90
2024-04-14T02:53:58.718Z,99.90
2024-04-14T02:56:31.895Z,99.90
2024-04-14T02:59:00.834Z,99.90
2024-04-14T03:01:31.381Z,99.90
2024-04-14T03:03:59.476Z,99.90
2024-04-14T03:06:32.603Z,99.90
2024-04-14T03:09:00.360Z,99.90
2024-04-14T03:11:30.741Z,99.90
2024-04-14T03:13:58.599Z,99.90
2024-04-14T03:16:29.967Z,99.90
2024-04-14T03:18:57.865Z,99.90
2024-04-14T03:21:28.831Z,99.90
2024-04-14T03:23:59.371Z,99.90
2024-04-14T03:26:29.855Z,99.90
2024-04-14T03:28:57.573Z,99.90
2024-04-14T03:31:27.951Z,99.90
2024-04-14T03:33:57.934Z,99.90
2024-04-14T03:36:28.284Z,99.90
2024-04-14T03:39:01.628Z,99.90
2024-04-14T03:41:32.015Z,99.90
2024-04-14T03:44:02.330Z,99.90
2024-04-14T03:46:32.726Z,99.90
2024-04-14T03:49:00.561Z,99.90
2024-04-14T03:51:31.009Z,99.90
2024-04-14T03:54:01.406Z,99.90
2024-04-14T03:56:31.781Z,99.90
2024-04-14T03:58:59.476Z,99.90
2024-04-14T04:01:29.957Z,99.90
2024-04-14T04:03:58.750Z,99.90
2024-04-14T04:06:29.314Z,99.90
2024-04-14T04:08:57.124Z,99.90
2024-04-14T04:11:30.128Z,99.90
2024-04-14T04:13:57.849Z,99.90
2024-04-14T04:16:28.217Z,99.90
2024-04-14T04:19:07.307Z,99.90
2024-04-14T04:21:44.646Z,99.90
2024-04-14T04:24:12.401Z,99.90
2024-04-14T04:26:45.413Z,99.90
2024-04-14T04:29:13.194Z,99.90
2024-04-14T04:31:43.572Z,99.90
2024-04-14T04:34:11.291Z,99.90
2024-04-14T04:36:41.676Z,99.90
2024-04-14T04:39:09.473Z,99.90
2024-04-14T04:41:39.834Z,99.90
2024-04-14T04:44:11.857Z,99.90
2024-04-14T04:46:42.195Z,99.90
2024-04-14T04:49:10.029Z,99.90
2024-04-14T04:51:40.493Z,99.90
2024-04-14T04:54:08.376Z,99.90
2024-04-14T04:56:38.750Z,99.90
2024-04-14T04:59:06.467Z,99.90
2024-04-14T05:01:39.555Z,99.90
2024-04-14T05:04:07.509Z,99.90
2024-04-14T05:06:38.016Z,99.90
2024-04-14T05:09:05.824Z,99.90
2024-04-14T05:11:36.129Z,99.90
2024-04-14T05:14:03.866Z,99.90
2024-04-14T05:16:34.269Z,99.90
2024-04-14T05:19:04.822Z,99.90
2024-04-14T05:21:35.582Z,99.90
2024-04-14T05:24:03.411Z,99.90
2024-04-14T05:26:33.726Z,99.90
2024-04-14T05:29:01.495Z,99.90
2024-04-14T05:31:31.976Z,99.90
2024-04-14T05:33:59.870Z,99.90
2024-04-14T05:36:33.121Z,99.90
2024-04-14T05:39:00.974Z,99.90
2024-04-14T05:41:31.542Z,99.90
2024-04-14T05:44:02.039Z,99.90
2024-04-14T05:46:29.777Z,99.90
2024-04-14T05:49:17.704Z,99.90
2024-04-14T05:51:50.160Z,99.90
2024-04-14T05:54:20.791Z,99.90
2024-04-14T05:56:48.555Z,99.90
2024-04-14T05:59:18.999Z,99.90
2024-04-14T06:01:49.153Z,99.90
2024-04-14T06:04:19.700Z,99.90
2024-04-14T06:06:51.442Z,99.90
2024-04-14T06:09:22.962Z,99.90
2024-04-14T06:11:50.824Z,99.90
2024-04-14T06:14:21.250Z,99.90
2024-04-14T06:16:49.030Z,99.90
2024-04-14T06:19:21.487Z,99.90
2024-04-14T06:21:51.992Z,99.90
2024-04-14T06:24:24.027Z,99.90
2024-04-14T06:26:51.856Z,99.90
2024-04-14T06:29:22.310Z,99.90
2024-04-14T06:31:50.145Z,99.90
2024-04-14T06:34:20.624Z,99.90
2024-04-14T06:36:48.519Z,99.90
2024-04-14T06:39:21.667Z,99.90
2024-04-14T06:41:49.515Z,99.90
2024-04-14T06:44:19.966Z,99.90
2024-04-14T06:46:47.788Z,99.90
2024-04-14T06:49:18.169Z,99.90
2024-04-14T06:51:47.234Z,99.90
2024-04-14T06:54:17.677Z,99.90
2024-04-14T06:56:48.090Z,99.90
2024-04-14T06:59:18.534Z,99.90
2024-04-14T07:01:46.417Z,99.90
2024-04-14T07:04:17.076Z,99.90
2024-04-14T07:06:44.959Z,99.90
2024-04-14T07:09:15.340Z,99.90
2024-04-14T07:11:43.194Z,99.90
2024-04-14T07:14:16.434Z,99.90
2024-04-14T07:16:44.127Z,99.90
2024-04-14T07:19:14.770Z,99.90
2024-04-14T07:21:42.583Z,99.90
2024-04-14T07:24:14.161Z,99.90
2024-04-14T07:26:41.976Z,99.90
2024-04-14T07:29:15.134Z,99.90
2024-04-14T07:31:42.870Z,99.90
2024-04-14T07:34:14.297Z,99.90
2024-04-14T07:36:42.124Z,99.90
2024-04-14T07:39:12.760Z,99.90
2024-04-14T07:41:40.541Z,99.90
2024-04-14T07:44:10.930Z,99.90
2024-04-14T07:46:41.342Z,99.90
2024-04-14T07:49:12.139Z,99.90
2024-04-14T07:51:39.951Z,99.90
2024-04-14T07:54:10.361Z,99.90
2024-04-14T07:56:38.601Z,99.90
2024-04-14T07:59:08.976Z,99.90
2024-04-14T08:01:36.830Z,99.90
2024-04-14T08:04:10.223Z,99.90
2024-04-14T08:06:38.155Z,99.90
2024-04-14T08:09:08.523Z,99.90
2024-04-14T08:11:36.313Z,99.90
2024-04-14T08:14:09.656Z,99.90
2024-04-14T08:16:37.797Z,99.90
2024-04-14T08:19:10.897Z,99.90
2024-04-14T08:21:38.677Z,99.90
2024-04-14T08:24:11.072Z,99.90
2024-04-14T08:26:38.799Z,99.90
2024-04-14T08:29:09.161Z,99.90
2024-04-14T08:31:37.063Z,99.90
2024-04-14T08:34:10.307Z,99.90
2024-04-14T08:36:38.226Z,99.90
2024-04-14T08:39:08.770Z,99.90
2024-04-14T08:41:42.972Z,99.90
2024-04-14T08:44:16.627Z,99.90
2024-04-14T08:46:44.807Z,99.90
2024-04-14T08:49:19.053Z,99.90
2024-04-14T08:51:50.673Z,99.90
2024-04-14T08:54:21.331Z,99.90
2024-04-14T08:56:56.084Z,99.90
2024-04-14T08:59:29.552Z,99.90
2024-04-14T09:01:58.574Z,99.90
2024-04-14T09:04:32.479Z,99.90
2024-04-14T09:07:00.667Z,99.90
2024-04-14T09:09:31.125Z,99.90
2024-04-14T09:12:00.024Z,99.90
2024-04-14T09:14:30.579Z,99.90
2024-04-14T09:16:58.350Z,99.90
2024-04-14T09:19:31.795Z,99.90
2024-04-14T09:22:05.345Z,99.90
2024-04-14T09:24:36.212Z,99.90
2024-04-14T09:27:05.160Z,99.90
2024-04-14T09:29:35.619Z,99.90
2024-04-14T09:32:05.950Z,99.90
2024-04-14T09:34:41.832Z,99.90
2024-04-14T09:37:09.897Z,99.90
2024-04-14T09:39:42.009Z,99.90
2024-04-14T09:42:09.913Z,99.90
2024-04-14T09:44:42.062Z,99.90
2024-04-14T09:47:11.042Z,99.90
2024-04-14T09:49:45.053Z,99.90
2024-04-14T09:52:15.693Z,99.90
2024-04-14T09:54:48.351Z,99.90
2024-04-14T09:57:16.279Z,99.90
2024-04-14T09:59:47.057Z,99.90
2024-04-14T10:02:22.516Z,99.90
2024-04-14T10:04:58.565Z,99.90
2024-04-14T10:07:26.844Z,99.90
2024-04-14T10:09:58.074Z,99.90
2024-04-14T10:12:26.220Z,99.90
2024-04-14T10:14:59.038Z,99.90
2024-04-14T10:17:30.209Z,99.90
2024-04-14T10:20:06.602Z,99.90
2024-04-14T10:22:37.565Z,99.90
2024-04-14T10:25:09.054Z,99.90
2024-04-14T10:27:36.869Z,99.90
2024-04-14T10:30:08.029Z,99.90
2024-04-14T10:32:35.951Z,99.90
2024-04-14T10:35:19.551Z,99.90
2024-04-14T10:37:54.571Z,99.90
2024-04-14T10:40:25.655Z,99.90
2024-04-14T10:42:54.033Z,99.90
2024-04-14T10:45:31.421Z,99.90
2024-04-14T10:47:59.752Z,99.90
2024-04-14T10:50:34.271Z,99.90
2024-04-14T10:53:02.143Z,99.90
2024-04-14T10:55:32.562Z,99.90
2024-04-14T10:58:00.423Z,99.90
2024-04-14T11:00:30.980Z,99.90
2024-04-14T11:03:00.299Z,99.90
2024-04-14T11:05:36.068Z,99.90
2024-04-14T11:08:04.622Z,99.90
2024-04-14T11:10:35.409Z,99.90
2024-04-14T11:13:03.385Z,99.90
2024-04-14T11:15:33.781Z,99.90
2024-04-14T11:18:01.724Z,99.90
2024-04-14T11:20:34.929Z,99.90
2024-04-14T11:23:03.017Z,99.90
2024-04-14T11:25:34.207Z,99.90
2024-04-14T11:28:02.623Z,99.90
2024-04-14T11:30:34.440Z,99.90
2024-04-14T11:33:02.894Z,99.90
2024-04-14T11:35:36.078Z,99.90
2024-04-14T11:38:04.475Z,99.90
2024-04-14T11:40:35.000Z,99.90
2024-04-14T11:43:02.916Z,99.90
2024-04-14T11:45:33.895Z,99.90
2024-04-14T11:48:01.805Z,99.90
2024-04-14T11:50:32.252Z,99.90
2024-04-14T11:53:02.758Z,99.90
2024-04-14T11:55:33.129Z,99.90
2024-04-14T11:58:01.657Z,99.90
2024-04-14T12:00:32.382Z,99.90
2024-04-14T12:03:00.414Z,99.90
2024-04-14T12:05:31.282Z,99.90
2024-04-14T12:08:01.802Z,99.90
2024-04-14T12:10:32.363Z,99.90
2024-04-14T12:13:00.292Z,99.90
2024-04-14T12:15:30.862Z,99.90
2024-04-14T12:17:58.822Z,99.90
2024-04-14T12:20:29.317Z,99.90
2024-04-14T12:22:57.086Z,99.90
2024-04-14T12:25:30.335Z,99.90
2024-04-14T12:27:58.148Z,99.90
2024-04-14T12:30:35.959Z,99.90
2024-04-14T12:33:08.360Z,99.90
2024-04-14T12:35:38.802Z,99.90
2024-04-14T12:38:06.620Z,99.90
2024-04-14T12:40:41.723Z,99.90
2024-04-14T12:43:09.616Z,99.90
2024-04-14T12:45:44.726Z,99.90
2024-04-14T12:48:18.976Z,99.90
2024-04-14T12:50:50.361Z,99.90
2024-04-14T12:53:19.360Z,99.90
2024-04-14T12:55:52.444Z,99.90
2024-04-14T12:58:20.264Z,99.90
2024-04-14T13:00:52.244Z,99.90
2024-04-14T13:03:20.185Z,99.90
2024-04-14T13:05:51.194Z,99.90
2024-04-14T13:08:18.998Z,99.90
2024-04-14T13:10:52.147Z,99.90
2024-04-14T13:13:19.948Z,99.90
2024-04-14T13:15:50.596Z,99.90
2024-04-14T13:18:18.491Z,99.90
2024-04-14T13:20:49.070Z,99.90
2024-04-14T13:23:19.878Z,99.90
2024-04-14T13:25:52.899Z,99.90
2024-04-14T13:28:20.716Z,99.90
2024-04-14T13:30:51.241Z,99.90
2024-04-14T13:33:19.012Z,99.90
2024-04-14T13:35:49.517Z,99.90
2024-04-14T13:38:17.557Z,99.90
2024-04-14T13:40:47.981Z,99.90
2024-04-14T13:43:18.657Z,99.20
2024-04-14T13:45:49.398Z,98.30
2024-04-14T13:48:17.232Z,98.20
2024-04-14T13:50:47.731Z,98.40
2024-04-14T13:53:17.908Z,98.50
2024-04-14T13:55:48.328Z,98.40
2024-04-14T13:58:21.707Z,98.30
2024-04-14T14:00:52.574Z,98.40
2024-04-14T14:03:20.437Z,97.60
2024-04-14T14:05:50.878Z,97.80
2024-04-14T14:08:18.665Z,97.60
2024-04-14T14:10:49.094Z,97.30
2024-04-14T14:13:19.510Z,97.30
2024-04-14T14:15:54.939Z,97.00
2024-04-14T14:18:22.836Z,97.40
2024-04-14T14:20:53.612Z,97.20
2024-04-14T14:23:21.404Z,96.50
2024-04-14T14:25:51.826Z,96.50
2024-04-14T14:28:22.305Z,96.30
2024-04-14T14:30:52.818Z,96.90
2024-04-14T14:33:39.451Z,96.50
2024-04-14T14:36:27.823Z,96.80
2024-04-14T14:38:58.980Z,97.00
2024-04-14T14:41:30.407Z,97.00
2024-04-14T14:44:03.746Z,96.40
2024-04-14T14:46:32.862Z,95.80
2024-04-14T14:49:04.273Z,96.20
2024-04-14T14:51:34.900Z,96.20
2024-04-14T14:54:02.909Z,95.80
2024-04-14T14:56:33.933Z,95.70
2024-04-14T14:59:04.513Z,96.00
2024-04-14T15:01:35.043Z,95.40
2024-04-14T15:04:02.975Z,95.30
2024-04-14T15:06:33.584Z,95.30
2024-04-14T15:09:01.375Z,94.90
2024-04-14T15:11:31.984Z,94.70
2024-04-14T15:13:59.770Z,94.80
2024-04-14T15:16:32.815Z,94.60
2024-04-14T15:19:00.708Z,94.10
2024-04-14T15:21:33.109Z,94.20
2024-04-14T15:24:01.124Z,94.20
2024-04-14T15:26:31.557Z,94.20
2024-04-14T15:28:59.468Z,94.30
2024-04-14T15:31:32.581Z,94.10
2024-04-14T15:34:03.585Z,94.40
2024-04-14T15:36:34.193Z,94.20
2024-04-14T15:39:02.099Z,94.60
2024-04-14T15:41:32.600Z,94.70
2024-04-14T15:44:07.458Z,94.80
2024-04-14T15:46:47.798Z,94.70
2024-04-14T15:49:15.613Z,94.80
2024-04-14T15:51:46.109Z,94.70
2024-04-14T15:54:15.854Z,94.50
2024-04-14T15:56:46.579Z,94.80
2024-04-14T15:59:14.454Z,94.80
2024-04-14T16:01:47.557Z,94.70
2024-04-14T16:04:15.536Z,94.90
2024-04-14T16:06:46.054Z,94.90
2024-04-14T16:09:13.833Z,95.00
2024-04-14T16:11:44.219Z,95.10
2024-04-14T16:14:12.131Z,95.30
2024-04-14T16:16:42.639Z,95.30
2024-04-14T16:19:15.599Z,95.10
2024-04-14T16:21:46.761Z,95.30
2024-04-14T16:24:15.319Z,95.60
2024-04-14T16:26:45.730Z,95.60
2024-04-14T16:29:13.700Z,96.00
2024-04-14T16:31:44.160Z,96.00
2024-04-14T16:34:14.652Z,96.10
2024-04-14T16:36:47.087Z,96.30
2024-04-14T16:39:15.247Z,96.20
2024-04-14T16:41:45.680Z,96.00
2024-04-14T16:44:13.386Z,95.90
2024-04-14T16:46:43.815Z,96.50
2024-04-14T16:49:14.255Z,96.30
2024-04-14T16:51:44.806Z,96.50
2024-04-14T16:54:12.812Z,96.70
2024-04-14T16:56:43.364Z,97.20
2024-04-14T16:59:11.142Z,97.50
2024-04-14T17:01:41.627Z,97.60
2024-04-14T17:04:10.012Z,97.40
2024-04-14T17:06:43.199Z,97.40
2024-04-14T17:09:10.941Z,97.40
2024-04-14T17:11:41.299Z,97.30
2024-04-14T17:14:09.064Z,97.20
2024-04-14T17:16:39.455Z,97.30
2024-04-14T17:19:09.939Z,97.30
2024-04-14T17:21:40.514Z,97.30
2024-04-14T17:24:11.620Z,97.10
2024-04-14T17:26:39.468Z,97.30
2024-04-14T17:29:09.797Z,97.30
2024-04-14T17:31:37.668Z,97.70
2024-04-14T17:34:08.262Z,97.30
2024-04-14T17:36:36.082Z,97.10
2024-04-14T17:39:09.526Z,97.40
2024-04-14T17:41:57.338Z,97.40
2024-04-14T17:44:27.821Z,97.40
2024-04-14T17:47:52.700Z,97.30
2024-04-14T17:51:00.398Z,97.30
2024-04-14T17:53:29.097Z,97.20
2024-04-14T17:56:02.157Z,97.20
2024-04-14T17:58:30.367Z,97.10
2024-04-14T18:01:01.021Z,97.20
2024-04-14T18:03:29.154Z,97.00
2024-04-14T18:06:00.232Z,97.00
2024-04-14T18:08:27.972Z,97.00
2024-04-14T18:11:01.515Z,97.00
2024-04-14T18:13:29.389Z,96.90
2024-04-14T18:15:59.774Z,97.10
2024-04-14T18:18:27.685Z,97.50
2024-04-14T18:20:58.043Z,98.00
2024-04-14T18:23:26.126Z,97.60
2024-04-14T18:25:56.600Z,97.90
2024-04-14T18:28:27.248Z,97.60
2024-04-14T18:30:58.715Z,97.50
2024-04-14T18:33:26.639Z,97.40
2024-04-14T18:36:06.673Z,97.50
2024-04-14T18:38:42.179Z,97.50
2024-04-14T18:41:12.612Z,97.40
2024-04-14T18:43:43.033Z,97.50
2024-04-14T18:46:13.361Z,97.70
2024-04-14T18:48:41.321Z,98.10
2024-04-14T18:51:13.043Z,98.10
2024-04-14T18:53:40.874Z,98.50
2024-04-14T18:56:12.600Z,98.40
2024-04-14T18:58:43.038Z,98.40
2024-04-14T19:01:13.682Z,98.70
2024-04-14T19:03:41.552Z,98.90
2024-04-14T19:06:12.358Z,98.80
2024-04-14T19:08:40.398Z,98.90
2024-04-14T19:11:10.891Z,99.10
2024-04-14T19:13:38.806Z,99.10
2024-04-14T19:16:14.482Z,99.30
2024-04-14T19:18:42.439Z,99.70
2024-04-14T19:21:13.210Z,99.80
2024-04-14T19:23:40.994Z,99.90
2024-04-14T19:26:13.608Z,99.90
2024-04-14T19:28:41.608Z,99.90
2024-04-14T19:31:17.597Z,99.90
2024-04-14T19:33:45.734Z,99.90
2024-04-14T19:36:16.524Z,99.90
2024-04-14T19:38:44.265Z,99.90
2024-04-14T19:41:16.333Z,99.90
2024-04-14T19:43:46.103Z,99.90
2024-04-14T19:46:19.220Z,99.90
2024-04-14T19:48:47.438Z,99.90
2024-04-14T19:51:18.356Z,99.90
2024-04-14T19:53:46.235Z,99.90
2024-04-14T19:56:16.713Z,99.90
2024-04-14T19:58:44.556Z,99.90
2024-04-14T20:01:16.448Z,99.90
2024-04-14T20:03:46.992Z,99.90
2024-04-14T20:06:17.461Z,99.90
2024-04-14T20:08:45.207Z,99.90
2024-04-14T20:11:15.843Z,99.90
2024-04-14T20:13:43.705Z,99.90
2024-04-14T20:16:14.081Z,99.90
2024-04-14T20:18:42.056Z,99.90
2024-04-14T20:21:15.123Z,99.90
2024-04-14T20:23:43.918Z,99.90
2024-04-14T20:26:14.267Z,99.90
2024-04-14T20:28:42.058Z,99.90
2024-04-14T20:31:12.656Z,99.90
2024-04-14T20:33:42.801Z,99.90
2024-04-14T20:36:16.054Z,99.90
2024-04-14T20:38:48.776Z,99.90
2024-04-14T20:41:19.214Z,99.90
2024-04-14T20:43:47.025Z,99.90
2024-04-14T20:46:17.386Z,99.90
2024-04-14T20:48:45.644Z,99.90
2024-04-14T20:51:18.897Z,99.90
2024-04-14T20:53:48.476Z,99.90
2024-04-14T20:56:18.939Z,99.90
2024-04-14T20:58:48.492Z,99.90
2024-04-14T21:01:19.123Z,99.90
2024-04-14T21:03:47.074Z,99.90
2024-04-14T21:06:20.178Z,99.90
2024-04-14T21:08:47.935Z,99.90
2024-04-14T21:11:18.605Z,99.90
2024-04-14T21:13:46.656Z,99.90
2024-04-14T21:16:17.025Z,99.90
2024-04-14T21:18:45.285Z,99.90
2024-04-14T21:21:15.874Z,99.90
2024-04-14T21:23:46.346Z,99.90
2024-04-14T21:26:16.678Z,99.90
2024-04-14T21:28:45.654Z,99.90
2024-04-14T21:31:16.074Z,99.90
2024-04-14T21:33:43.982Z,99.90
2024-04-14T21:36:14.850Z,99.90
2024-04-14T21:38:42.607Z,99.90
2024-04-14T21:41:15.690Z,99.90
2024-04-14T21:43:43.431Z,99.90
2024-04-14T21:46:14.220Z,99.90
2024-04-14T21:48:42.237Z,99.90
2024-04-14T21:51:14.358Z,99.90
2024-04-14T21:53:44.746Z,99.90
2024-04-14T21:56:15.112Z,99.90
2024-04-14T21:58:45.575Z,99.90
2024-04-14T22:01:14.344Z,99.90
2024-04-14T22:03:46.468Z,99.90
2024-04-14T22:06:14.535Z,99.90
2024-04-14T22:08:45.117Z,99.90
2024-04-14T22:11:15.548Z,99.90
2024-04-14T22:13:45.989Z,99.90
2024-04-14T22:16:13.919Z,99.90
2024-04-14T22:18:44.335Z,99.90
2024-04-14T22:21:12.233Z,99.90
2024-04-14T22:23:42.568Z,99.90
2024-04-14T22:26:10.424Z,99.90
2024-04-14T22:28:43.394Z,99.90
2024-04-14T22:31:11.239Z,99.90
2024-04-14T22:33:41.845Z,99.90
2024-04-14T22:36:09.620Z,99.90
2024-04-14T22:38:40.008Z,99.90
2024-04-14T22:41:08.024Z,99.90
2024-04-14T22:43:38.404Z,99.90
2024-04-14T22:46:08.958Z,99.90
2024-04-14T22:48:39.378Z,99.90
2024-04-14T22:51:07.161Z,99.90
2024-04-14T22:53:37.706Z,99.90
2024-04-14T22:56:05.893Z,99.90
2024-04-14T22:58:36.352Z,99.90
2024-04-14T23:01:07.737Z,99.90
2024-04-14T23:03:40.919Z,99.90
2024-04-14T23:06:12.226Z,99.90
2024-04-14T23:08:42.631Z,99.90
2024-04-14T23:11:10.548Z,99.90
2024-04-14T23:13:40.989Z,99.90
2024-04-14T23:16:08.750Z,99.90
2024-04-14T23:18:41.828Z,99.90
2024-04-14T23:21:09.720Z,99.90
2024-04-14T23:23:40.076Z,99.90
2024-04-14T23:26:07.893Z,99.90
2024-04-14T23:28:38.440Z,99.90
2024-04-14T23:31:07.001Z,99.90
2024-04-14T23:33:37.400Z,99.90
2024-04-14T23:36:08.342Z,99.90
2024-04-14T23:38:38.819Z,99.90
2024-04-14T23:41:06.691Z,99.90
2024-04-14T23:43:37.102Z,99.90
2024-04-14T23:46:05.411Z,99.90
2024-04-14T23:48:35.807Z,99.90
2024-04-14T23:51:03.935Z,99.90
2024-04-14T23:53:37.570Z,99.90
2024-04-14T23:56:06.016Z,99.90
2024-04-14T23:58:40.642Z,99.90
